Time;durP1;ratioP1;P1;durP2;ratioP2;P2;SDS_P1;SDS_P2;PMS_P1;PMS_P2;Temp;Humidity;BMP_temperature;BMP_pressure;BME280_temperature;BME280_humidity;BME280_pressure;Samples;Min_cycle;Max_cycle;Signal;HPM_P1;HPM_P2
2023/08/16 00:01:22;;;;;;;1.75;1.40;;;;;;;21.59;74.90;101832.66;6055920;29;20638;-68
2023/08/16 00:04:43;;;;;;;2.83;1.33;;;;;;;21.67;75.10;101843.59;6079082;29;21073;-68
2023/08/16 00:08:08;;;;;;;1.73;1.48;;;;;;;21.66;74.27;101843.75;6077576;29;20256;-67
2023/08/16 00:11:31;;;;;;;3.03;1.23;;;;;;;21.51;74.47;101831.88;6064384;29;20227;-67
2023/08/16 00:14:52;;;;;;;3.38;2.13;;;;;;;21.57;74.63;101842.97;6077524;29;20240;-68
2023/08/16 00:18:13;;;;;;;2.53;1.55;;;;;;;21.55;74.57;101834.06;6065195;29;20524;-66
2023/08/16 00:21:33;;;;;;;2.42;1.30;;;;;;;21.59;74.58;101829.91;6082620;29;20543;-67
2023/08/16 00:24:55;;;;;;;2.25;1.92;;;;;;;21.63;74.48;101835.91;6077908;29;20235;-67
2023/08/16 00:28:16;;;;;;;3.55;1.25;;;;;;;21.56;74.45;101838.53;6070567;29;20244;-67
2023/08/16 00:31:38;;;;;;;2.13;1.35;;;;;;;21.44;75.06;101840.00;5986221;29;20242;-67
2023/08/16 00:34:59;;;;;;;2.60;1.52;;;;;;;21.49;75.04;101830.16;6071122;29;20264;-67
2023/08/16 00:38:20;;;;;;;2.17;1.90;;;;;;;21.33;75.24;101835.78;6071280;29;20268;-66
2023/08/16 00:41:42;;;;;;;1.67;1.30;;;;;;;21.21;75.88;101839.13;6059502;29;20240;-67
2023/08/16 00:45:04;;;;;;;1.92;1.70;;;;;;;21.19;76.35;101839.31;6077172;29;20225;-67
2023/08/16 00:48:25;;;;;;;1.92;1.55;;;;;;;21.15;76.34;101842.59;6069539;29;20233;-67
2023/08/16 00:51:46;;;;;;;5.60;1.77;;;;;;;21.10;76.96;101839.53;6061214;29;20241;-67
2023/08/16 00:55:09;;;;;;;1.15;1.05;;;;;;;21.08;76.92;101839.72;6077067;29;20232;-67
2023/08/16 00:58:32;;;;;;;4.10;1.35;;;;;;;21.17;76.51;101843.28;6061208;29;20694;-68
2023/08/16 01:01:54;;;;;;;2.45;1.75;;;;;;;21.15;76.76;101848.09;6061206;29;20312;-68
2023/08/16 01:05:17;;;;;;;4.53;1.77;;;;;;;21.02;77.21;101853.28;6074562;29;20579;-68
2023/08/16 01:08:39;;;;;;;1.40;1.30;;;;;;;20.99;77.14;101850.88;6072493;29;20245;-66
2023/08/16 01:12:05;;;;;;;2.67;2.22;;;;;;;21.04;77.32;101856.72;6067368;29;20506;-67
2023/08/16 01:15:32;;;;;;;3.83;1.98;;;;;;;21.10;77.14;101856.00;6081934;29;20232;-68
2023/08/16 01:18:54;;;;;;;2.80;2.30;;;;;;;20.99;77.79;101859.09;6073581;29;20321;-67
2023/08/16 01:22:32;;;;;;;1.58;1.17;;;;;;;20.96;77.97;101848.50;6066385;29;20232;-67
2023/08/16 01:26:02;;;;;;;4.03;1.65;;;;;;;20.96;77.96;101852.13;6081951;29;20283;-67
2023/08/16 01:29:25;;;;;;;1.80;1.45;;;;;;;20.87;78.30;101855.91;6060171;29;20249;-68
2023/08/16 01:32:47;;;;;;;2.83;1.77;;;;;;;20.91;78.80;101857.28;6065393;29;20237;-67
2023/08/16 01:36:07;;;;;;;2.17;1.55;;;;;;;20.92;78.88;101853.50;6059864;29;20232;-67
2023/08/16 01:39:28;;;;;;;3.15;1.52;;;;;;;20.85;79.02;101862.63;6064155;29;20597;-68
2023/08/16 01:42:50;;;;;;;2.90;1.40;;;;;;;20.86;79.04;101861.59;6080776;29;20284;-68
2023/08/16 01:46:15;;;;;;;6.20;2.05;;;;;;;20.83;79.48;101872.91;6073706;29;20240;-68
2023/08/16 01:49:37;;;;;;;4.50;1.52;;;;;;;20.75;79.73;101868.31;6068020;29;20236;-67
2023/08/16 01:52:58;;;;;;;1.92;1.33;;;;;;;20.73;79.83;101862.16;6066057;29;20240;-67
2023/08/16 01:56:19;;;;;;;4.28;2.03;;;;;;;20.69;80.03;101869.03;6074674;29;20228;-67
2023/08/16 01:59:41;;;;;;;5.57;2.55;;;;;;;20.64;80.20;101875.03;6061350;29;20244;-67
2023/08/16 02:03:03;;;;;;;3.78;2.10;;;;;;;20.55;80.76;101875.22;6050062;29;20244;-67
2023/08/16 02:06:24;;;;;;;4.53;1.25;;;;;;;20.59;80.90;101871.09;6047887;29;20385;-67
2023/08/16 02:09:45;;;;;;;3.15;1.83;;;;;;;20.43;81.46;101874.78;6067291;29;20323;-67
2023/08/16 02:13:06;;;;;;;3.05;1.75;;;;;;;20.56;81.70;101874.22;6065136;29;20679;-68
2023/08/16 02:16:27;;;;;;;3.35;1.85;;;;;;;20.51;81.73;101880.22;6062229;29;20236;-67
2023/08/16 02:19:50;;;;;;;5.30;2.25;;;;;;;20.34;81.89;101880.47;6063746;29;20228;-68
2023/08/16 02:23:10;;;;;;;3.22;1.83;;;;;;;20.50;82.39;101881.28;6075567;29;20236;-67
2023/08/16 02:26:32;;;;;;;2.25;1.50;;;;;;;20.52;82.16;101884.69;6065398;29;20236;-68
2023/08/16 02:29:53;;;;;;;4.53;1.67;;;;;;;20.35;82.32;101884.91;6070928;29;20670;-67
2023/08/16 02:33:14;;;;;;;3.90;2.03;;;;;;;20.42;82.68;101888.66;6061883;29;20527;-67
2023/08/16 02:36:36;;;;;;;2.25;1.58;;;;;;;20.41;82.99;101876.84;6054045;29;20323;-68
2023/08/16 02:39:57;;;;;;;2.30;1.58;;;;;;;20.34;82.85;101870.34;6072892;29;20241;-67
2023/08/16 02:43:18;;;;;;;5.90;2.10;;;;;;;20.40;82.92;101882.50;6057784;29;20228;-67
2023/08/16 02:46:39;;;;;;;2.20;2.00;;;;;;;20.20;83.64;101881.16;6057488;29;20315;-67
2023/08/16 02:49:59;;;;;;;4.70;3.20;;;;;;;20.21;83.97;101881.00;6074079;29;20327;-67
2023/08/16 02:53:21;;;;;;;4.32;2.38;;;;;;;20.15;84.21;101889.84;6061666;29;20647;-67
2023/08/16 02:56:42;;;;;;;5.57;3.92;;;;;;;20.19;84.40;101890.38;6077513;29;20236;-68
2023/08/16 03:00:06;;;;;;;10.05;5.25;;;;;;;20.14;84.61;101896.38;6061417;29;20236;-67
2023/08/16 03:03:27;;;;;;;6.85;3.15;;;;;;;20.17;84.43;101885.06;6062544;29;20244;-67
2023/08/16 03:06:48;;;;;;;5.68;3.22;;;;;;;20.19;84.05;101893.13;6053533;29;20248;-68
2023/08/16 03:10:11;;;;;;;4.95;3.25;;;;;;;20.11;84.90;101888.50;6078656;29;20279;-67
2023/08/16 03:13:32;;;;;;;9.43;7.70;;;;;;;20.12;85.01;101898.44;6071390;29;20634;-67
2023/08/16 03:16:53;;;;;;;5.78;3.30;;;;;;;20.15;85.24;101897.22;6062270;29;20768;-67
2023/08/16 03:20:14;;;;;;;3.03;2.15;;;;;;;20.14;85.23;101898.25;6073625;29;20240;-68
2023/08/16 03:23:34;;;;;;;11.95;9.35;;;;;;;20.12;85.32;101901.16;6054214;29;20248;-67
2023/08/16 03:26:57;;;;;;;7.45;5.72;;;;;;;20.07;85.50;101900.00;6056833;29;20316;-66
2023/08/16 03:30:19;;;;;;;4.82;3.13;;;;;;;20.06;85.69;101890.03;6060926;29;20237;-67
2023/08/16 03:33:40;;;;;;;3.92;2.80;;;;;;;19.97;85.78;101891.06;6065360;29;20259;-67
2023/08/16 03:37:02;;;;;;;8.60;3.20;;;;;;;19.98;85.98;101896.41;6053278;29;20232;-67
2023/08/16 03:40:23;;;;;;;3.90;2.75;;;;;;;19.92;86.07;101906.13;6070898;29;20558;-67
2023/08/16 03:43:46;;;;;;;4.50;3.42;;;;;;;19.90;86.45;101910.09;6059741;29;20232;-67
2023/08/16 03:47:07;;;;;;;3.85;2.95;;;;;;;19.84;86.40;101908.88;6063487;29;20798;-67
2023/08/16 03:50:28;;;;;;;4.57;2.42;;;;;;;19.82;86.77;101921.88;6065614;29;20502;-67
2023/08/16 03:53:48;;;;;;;4.25;3.00;;;;;;;19.79;86.93;101924.09;6055237;29;20244;-67
2023/08/16 03:57:09;;;;;;;9.98;3.22;;;;;;;19.66;87.35;101934.69;6073938;29;20244;-67
2023/08/16 04:00:31;;;;;;;7.25;3.97;;;;;;;19.68;87.56;101933.50;6080657;29;20235;-68
2023/08/16 04:03:52;;;;;;;8.10;6.80;;;;;;;19.60;87.33;101936.25;6053131;29;20612;-68
2023/08/16 04:07:13;;;;;;;15.43;10.60;;;;;;;19.55;87.82;101940.47;6068743;29;22192;-67
2023/08/16 04:10:34;;;;;;;11.77;6.82;;;;;;;19.59;88.45;101942.72;6064673;29;20264;-67
2023/08/16 04:13:55;;;;;;;12.43;8.50;;;;;;;19.57;88.33;101933.81;6050127;29;20288;-67
2023/08/16 04:17:17;;;;;;;10.82;5.40;;;;;;;19.63;88.44;101941.34;6068128;29;20255;-68
2023/08/16 04:20:38;;;;;;;15.13;6.45;;;;;;;19.65;88.35;101952.16;6060770;29;20260;-67
2023/08/16 04:23:59;;;;;;;7.15;3.72;;;;;;;19.60;88.19;101949.91;6048975;29;20252;-68
2023/08/16 04:27:20;;;;;;;11.80;3.80;;;;;;;19.62;88.14;101942.41;6060987;29;20221;-67
2023/08/16 04:30:41;;;;;;;4.55;3.03;;;;;;;19.68;88.01;101947.19;6070410;29;20241;-68
2023/08/16 04:34:04;;;;;;;6.80;3.78;;;;;;;19.68;88.18;101952.66;6039445;29;21084;-68
2023/08/16 04:37:25;;;;;;;8.07;4.05;;;;;;;19.54;88.03;101957.94;6063245;29;20244;-67
2023/08/16 04:40:49;;;;;;;4.78;3.03;;;;;;;19.69;87.88;101957.09;6074531;29;20256;-68
2023/08/16 04:44:10;;;;;;;4.50;3.13;;;;;;;19.66;87.95;101956.59;6061692;29;20347;-68
2023/08/16 04:47:31;;;;;;;5.13;3.55;;;;;;;19.54;87.97;101968.88;6049767;29;20228;-68
2023/08/16 04:50:54;;;;;;;7.55;3.25;;;;;;;19.57;88.15;101972.13;6070038;29;20323;-67
2023/08/16 04:54:16;;;;;;;3.55;3.15;;;;;;;19.50;88.15;101978.44;6075761;29;21037;-67
2023/08/16 04:57:37;;;;;;;5.00;3.65;;;;;;;19.56;88.39;101985.97;6049757;29;20573;-68
2023/08/16 05:00:58;;;;;;;6.00;3.97;;;;;;;19.62;88.26;101990.78;6070009;29;20248;-68
2023/08/16 05:04:19;;;;;;;7.40;5.75;;;;;;;19.76;88.34;101990.97;6052045;29;20510;-68
2023/08/16 05:07:41;;;;;;;8.70;7.38;;;;;;;19.85;88.19;101998.19;6063814;29;20260;-68
2023/08/16 05:11:03;;;;;;;11.95;9.75;;;;;;;19.98;87.84;101996.81;6061104;29;20755;-67
2023/08/16 05:14:24;;;;;;;7.13;4.43;;;;;;;19.94;87.31;101997.16;6041997;29;20759;-67
2023/08/16 05:17:45;;;;;;;5.57;5.00;;;;;;;20.08;87.68;102005.72;6059633;29;20236;-67
2023/08/16 05:21:05;;;;;;;11.05;5.22;;;;;;;20.17;87.26;102021.16;6068513;29;20253;-68
2023/08/16 05:24:28;;;;;;;6.15;4.20;;;;;;;20.02;86.71;102009.16;6064653;29;20232;-68
2023/08/16 05:27:49;;;;;;;5.88;4.10;;;;;;;20.20;86.47;102012.59;6044447;29;20256;-68
2023/08/16 05:31:10;;;;;;;8.07;6.07;;;;;;;20.20;86.21;102012.59;6074267;29;20247;-69
2023/08/16 05:34:31;;;;;;;9.23;5.45;;;;;;;20.37;85.82;102012.44;6055681;29;20248;-69
2023/08/16 05:37:52;;;;;;;9.80;5.32;;;;;;;20.68;85.58;102013.44;6073395;29;20707;-69
2023/08/16 05:41:14;;;;;;;7.75;4.25;;;;;;;20.59;84.83;102013.59;6070424;29;20228;-67
2023/08/16 05:44:35;;;;;;;4.65;4.05;;;;;;;20.68;84.60;102023.53;6080650;29;20232;-67
2023/08/16 05:47:56;;;;;;;5.25;4.75;;;;;;;20.79;84.35;102016.84;6071839;29;20402;-67
2023/08/16 05:51:17;;;;;;;6.28;4.72;;;;;;;20.69;84.02;102020.63;6068150;29;20236;-67
2023/08/16 05:54:38;;;;;;;6.75;3.88;;;;;;;20.91;83.45;102024.53;6069397;29;20808;-68
2023/08/16 05:58:00;;;;;;;6.13;3.70;;;;;;;21.22;82.62;102013.66;6066390;29;20319;-68
2023/08/16 06:01:21;;;;;;;12.05;8.93;;;;;;;21.37;81.82;102011.88;6082109;29;20228;-66
2023/08/16 06:04:42;;;;;;;5.90;4.32;;;;;;;21.79;80.66;102011.47;6062958;29;22019;-67
2023/08/16 06:08:04;;;;;;;7.00;4.57;;;;;;;21.54;79.59;102013.50;6079191;29;21781;-66
2023/08/16 06:11:25;;;;;;;10.20;4.25;;;;;;;21.71;79.88;102017.00;6078135;29;20236;-68
2023/08/16 06:14:47;;;;;;;7.38;3.42;;;;;;;21.72;79.42;102008.59;6071299;29;23102;-68
2023/08/16 06:18:08;;;;;;;3.45;3.15;;;;;;;21.76;78.62;102007.19;6054622;29;20238;-68
2023/08/16 06:21:29;;;;;;;4.80;3.03;;;;;;;21.77;78.12;102011.66;6063538;29;20225;-67
2023/08/16 06:24:50;;;;;;;3.35;2.22;;;;;;;21.66;78.13;102022.19;6040356;29;20607;-67
2023/08/16 06:28:11;;;;;;;12.73;3.53;;;;;;;21.66;77.74;102031.28;6060487;29;20327;-68
2023/08/16 06:31:34;;;;;;;5.22;2.92;;;;;;;21.47;77.35;102034.44;6048910;29;20233;-68
2023/08/16 06:34:54;;;;;;;10.73;2.75;;;;;;;21.71;76.21;102039.84;6030957;29;20555;-67
2023/08/16 06:38:15;;;;;;;4.57;2.30;;;;;;;21.85;76.04;102033.59;6057585;29;20240;-68
2023/08/16 06:41:37;;;;;;;4.35;2.35;;;;;;;21.85;75.94;102044.59;6061113;29;20237;-71
2023/08/16 06:44:58;;;;;;;3.65;2.63;;;;;;;22.07;75.57;102045.66;6043076;29;20232;-69
2023/08/16 06:48:20;;;;;;;3.88;1.98;;;;;;;22.07;75.55;102049.22;6072834;29;20228;-68
2023/08/16 06:51:41;;;;;;;2.13;1.58;;;;;;;22.20;74.51;102054.97;6078005;29;20233;-68
2023/08/16 06:55:02;;;;;;;3.92;1.77;;;;;;;22.37;73.44;102060.34;6075109;29;20327;-69
2023/08/16 06:58:24;;;;;;;3.63;1.90;;;;;;;22.56;72.51;102055.19;6082227;29;20241;-69
2023/08/16 07:01:45;;;;;;;2.90;1.52;;;;;;;22.80;71.51;102063.25;6077475;29;20331;-68
2023/08/16 07:05:12;;;;;;;3.70;1.85;;;;;;;22.87;70.30;102063.34;6080463;29;20240;-72
2023/08/16 07:08:33;;;;;;;4.47;1.88;;;;;;;22.67;69.73;102071.28;6074719;29;21112;-70
2023/08/16 07:11:53;;;;;;;2.03;1.02;;;;;;;22.51;69.75;102067.81;6071611;29;20236;-69
2023/08/16 07:15:14;;;;;;;1.95;1.20;;;;;;;23.00;69.12;102080.06;6068755;29;20320;-70
2023/08/16 07:18:35;;;;;;;2.30;1.75;;;;;;;23.53;67.59;102081.75;6071967;29;20240;-70
2023/08/16 07:21:58;;;;;;;4.20;1.52;;;;;;;23.10;66.77;102086.16;6066145;29;21312;-68
2023/08/16 07:25:19;;;;;;;7.65;2.03;;;;;;;22.78;67.72;102084.56;6074845;29;20237;-68
2023/08/16 07:28:40;;;;;;;2.53;1.83;;;;;;;22.64;68.54;102090.91;6083876;29;21784;-69
2023/08/16 07:32:00;;;;;;;1.45;1.35;;;;;;;22.67;69.06;102093.28;6080465;29;20286;-69
2023/08/16 07:35:22;;;;;;;2.85;1.60;;;;;;;22.68;68.84;102091.38;6086102;29;20236;-69
2023/08/16 07:38:44;;;;;;;9.50;8.48;;;;;;;22.75;68.32;102103.34;6082790;29;20237;-69
2023/08/16 07:42:06;;;;;;;4.10;3.70;;;;;;;23.07;66.91;102104.94;6077013;29;20236;-69
2023/08/16 07:45:27;;;;;;;3.88;1.55;;;;;;;23.16;65.65;102106.53;6078593;29;20233;-67
2023/08/16 07:48:48;;;;;;;3.70;2.08;;;;;;;23.37;66.18;102102.06;6082382;29;20532;-68
2023/08/16 07:52:11;;;;;;;2.95;2.03;;;;;;;23.34;65.84;102116.22;6079785;29;20232;-68
2023/08/16 07:55:33;;;;;;;3.50;3.22;;;;;;;23.52;65.19;102121.31;6081471;29;20232;-69
2023/08/16 07:58:54;;;;;;;3.83;2.00;;;;;;;23.41;65.52;102110.78;6081029;29;20241;-69
2023/08/16 08:02:15;;;;;;;7.63;3.67;;;;;;;23.60;64.81;102122.06;6083176;29;20252;-69
2023/08/16 08:05:36;;;;;;;6.18;5.57;;;;;;;23.31;65.72;102121.19;6080315;29;20619;-69
2023/08/16 08:08:57;;;;;;;3.05;2.15;;;;;;;23.36;65.49;102119.63;6074377;29;20353;-71
2023/08/16 08:12:19;;;;;;;5.45;3.10;;;;;;;23.35;66.03;102119.78;6074993;29;20544;-70
2023/08/16 08:15:40;;;;;;;2.40;1.95;;;;;;;23.36;64.32;102130.63;6071002;29;20236;-70
2023/08/16 08:19:01;;;;;;;1.83;1.35;;;;;;;23.21;64.74;102120.59;6077595;29;20233;-70
2023/08/16 08:22:22;;;;;;;2.03;1.83;;;;;;;23.48;65.46;102125.50;6078416;29;20232;-71
2023/08/16 08:25:44;;;;;;;3.10;1.85;;;;;;;23.70;64.34;102122.63;6076118;29;20244;-71
2023/08/16 08:29:06;;;;;;;2.05;1.52;;;;;;;24.13;63.88;102120.91;6071551;29;20241;-69
2023/08/16 08:32:27;;;;;;;2.88;1.20;;;;;;;23.72;64.18;102123.28;6077226;29;21156;-67
2023/08/16 08:35:50;;;;;;;4.03;1.90;;;;;;;23.86;64.71;102137.25;6060715;29;20241;-66
2023/08/16 08:39:10;;;;;;;7.32;2.20;;;;;;;23.68;64.33;102141.25;6088085;29;20236;-66
2023/08/16 08:42:32;;;;;;;2.55;1.58;;;;;;;23.33;65.37;102152.16;6085509;29;20526;-66
2023/08/16 08:45:57;;;;;;;5.05;1.13;;;;;;;22.27;66.37;102149.41;6089681;29;20251;-66
2023/08/16 08:49:20;;;;;;;2.00;1.35;;;;;;;22.81;65.46;102152.97;6084478;29;20307;-66
2023/08/16 08:52:48;;;;;;;3.75;1.95;;;;;;;23.12;65.06;102152.84;6085206;29;20603;-67
2023/08/16 08:56:09;;;;;;;7.65;6.40;;;;;;;23.55;64.26;102159.50;6077366;29;20328;-66
2023/08/16 08:59:32;;;;;;;3.60;1.63;;;;;;;23.63;63.15;102163.03;6075087;29;20252;-66
2023/08/16 09:02:57;;;;;;;2.58;1.52;;;;;;;23.49;63.74;102157.50;6081325;29;20240;-67
2023/08/16 09:06:18;;;;;;;1.33;1.20;;;;;;;23.75;61.93;102158.75;6085805;29;20233;-66
2023/08/16 09:09:40;;;;;;;8.48;2.67;;;;;;;23.70;62.89;102165.84;6087675;29;20639;-67
2023/08/16 09:13:01;;;;;;;24.70;3.65;;;;;;;24.00;61.85;102159.28;6083150;29;20691;-67
2023/08/16 09:16:23;;;;;;;5.35;1.80;;;;;;;23.98;61.99;102155.00;6079782;29;20232;-67
2023/08/16 09:20:13;;;;;;;3.47;1.35;;;;;;;23.08;62.73;102156.16;6078863;29;20578;-67
2023/08/16 09:23:34;;;;;;;2.05;1.35;;;;;;;23.10;63.08;102157.69;6089561;29;20229;-67
2023/08/16 09:27:00;;;;;;;1.58;1.48;;;;;;;22.59;63.97;102153.81;6087657;29;20232;-66
2023/08/16 09:30:23;;;;;;;7.20;1.33;;;;;;;23.10;63.51;102148.56;6085519;29;20252;-67
2023/08/16 09:33:43;;;;;;;1.42;1.05;;;;;;;23.78;62.31;102158.34;6090258;29;20248;-67
2023/08/16 09:37:06;;;;;;;1.20;1.10;;;;;;;23.72;61.84;102159.09;6082790;29;20232;-66
2023/08/16 09:40:27;;;;;;;2.45;1.55;;;;;;;24.19;61.07;102163.34;6076054;29;20670;-66
2023/08/16 09:43:47;;;;;;;3.95;1.25;;;;;;;24.09;61.22;102162.81;6086930;29;20259;-67
2023/08/16 09:47:13;;;;;;;3.55;3.05;;;;;;;24.34;61.44;102159.53;6089072;29;20244;-66
2023/08/16 09:50:35;;;;;;;3.90;1.92;;;;;;;24.22;60.52;102152.78;6086062;29;20603;-67
2023/08/16 09:53:58;;;;;;;1.40;1.30;;;;;;;24.28;59.76;102153.94;6065164;29;20232;-67
2023/08/16 09:57:19;;;;;;;5.00;1.95;;;;;;;24.86;59.79;102137.16;6083045;29;20311;-66
2023/08/16 10:00:40;;;;;;;4.25;1.80;;;;;;;24.29;59.65;102142.69;6078945;29;20260;-67
2023/08/16 10:04:02;;;;;;;2.15;1.48;;;;;;;24.88;60.98;102135.06;6081826;29;20232;-66
2023/08/16 10:07:24;;;;;;;3.60;1.83;;;;;;;25.15;59.61;102131.47;6078466;29;20647;-67
2023/08/16 10:10:47;;;;;;;4.90;2.03;;;;;;;25.07;59.14;102123.34;6080937;29;20248;-67
2023/08/16 10:14:09;;;;;;;3.00;2.03;;;;;;;25.23;59.36;102124.91;6082808;29;20604;-65
2023/08/16 10:17:29;;;;;;;1.63;1.40;;;;;;;25.45;58.18;102121.03;6069693;29;20225;-66
2023/08/16 10:20:59;;;;;;;1.90;1.70;;;;;;;25.46;59.24;102110.84;6078839;29;20280;-67
2023/08/16 10:24:22;;;;;;;6.28;5.68;;;;;;;25.73;59.88;102110.81;6078208;29;20236;-65
2023/08/16 10:27:46;;;;;;;6.28;5.68;;;;;;;25.80;57.68;102110.84;6083751;29;20237;-67
2023/08/16 10:31:08;;;;;;;2.10;1.80;;;;;;;25.97;56.83;102107.50;6070500;29;20233;-66
2023/08/16 10:34:30;;;;;;;4.18;1.50;;;;;;;24.32;58.05;102108.38;6074503;29;20242;-68
2023/08/16 10:37:53;;;;;;;2.40;1.80;;;;;;;25.27;59.04;102106.88;6066997;29;20232;-65
2023/08/16 10:41:16;;;;;;;3.83;1.40;;;;;;;25.70;57.63;102105.69;6059098;29;20603;-67
2023/08/16 10:44:39;;;;;;;5.38;1.48;;;;;;;25.70;56.53;102094.63;6070629;29;20237;-67
2023/08/16 10:48:09;;;;;;;1.70;1.60;;;;;;;26.25;57.96;102103.78;6070741;29;20266;-67
2023/08/16 10:51:31;;;;;;;1.73;1.42;;;;;;;26.83;56.38;102090.06;6065149;29;20240;-67
2023/08/16 10:54:54;;;;;;;1.70;1.25;;;;;;;26.69;55.18;102098.53;6074121;29;20822;-65
2023/08/16 10:58:19;;;;;;;1.63;1.17;;;;;;;25.92;56.08;102099.00;6076058;29;20236;-67
2023/08/16 11:01:50;;;;;;;1.75;1.55;;;;;;;26.37;54.67;102093.84;6069812;29;20232;-65
2023/08/16 11:05:17;;;;;;;5.20;1.63;;;;;;;26.81;55.23;102089.41;6073692;29;20232;-66
2023/08/16 11:08:42;;;;;;;1.50;1.40;;;;;;;27.36;53.48;102090.03;6062208;29;20278;-67
2023/08/16 11:12:04;;;;;;;1.45;1.10;;;;;;;27.67;52.32;102082.69;6072177;29;20323;-68
2023/08/16 11:15:26;;;;;;;1.73;1.10;;;;;;;27.09;53.22;102088.34;6085785;29;20232;-68
2023/08/16 11:18:49;;;;;;;4.07;1.20;;;;;;;26.67;52.59;102090.47;6075762;29;20233;-65
2023/08/16 11:22:11;;;;;;;1.90;1.42;;;;;;;26.57;53.09;102095.56;6072316;29;20241;-65
2023/08/16 11:25:33;;;;;;;1.50;1.02;;;;;;;27.33;52.83;102107.88;6078671;29;20860;-65
2023/08/16 11:28:54;;;;;;;2.30;1.20;;;;;;;28.68;50.65;102097.53;6076112;29;20229;-66
2023/08/16 11:32:15;;;;;;;3.00;1.70;;;;;;;28.73;49.41;102096.81;6079383;29;20252;-68
2023/08/16 11:35:37;;;;;;;6.55;3.47;;;;;;;29.53;48.69;102107.84;6081355;29;20240;-66
2023/08/16 11:38:59;;;;;;;3.72;2.45;;;;;;;29.75;47.30;102106.31;6068652;29;20241;-67
2023/08/16 11:42:20;;;;;;;1.15;1.05;;;;;;;29.72;47.93;102103.97;6070864;29;20257;-67
2023/08/16 11:45:41;;;;;;;1.75;1.27;;;;;;;30.16;47.74;102104.72;6078821;29;20225;-67
2023/08/16 11:49:02;;;;;;;1.83;1.30;;;;;;;30.69;46.50;102106.50;6072852;29;20225;-67
2023/08/16 11:52:25;;;;;;;3.75;1.48;;;;;;;28.51;47.00;102101.88;6078125;29;20323;-65
2023/08/16 11:55:57;;;;;;;2.10;0.98;;;;;;;29.20;48.33;102099.00;6081483;29;20624;-66
2023/08/16 11:59:26;;;;;;;4.55;1.50;;;;;;;30.60;47.35;102107.09;6064495;29;20228;-66
2023/08/16 12:02:47;;;;;;;1.00;0.80;;;;;;;29.41;47.07;102106.91;6068885;29;20228;-65
2023/08/16 12:06:09;;;;;;;1.67;1.08;;;;;;;30.55;45.91;102098.59;6069591;29;20297;-66
2023/08/16 12:09:39;;;;;;;1.73;1.08;;;;;;;31.03;41.96;102104.88;6064649;29;20602;-66
2023/08/16 12:13:11;;;;;;;1.50;1.02;;;;;;;34.96;38.10;102098.41;6067734;29;20313;-66
2023/08/16 12:16:32;;;;;;;2.58;1.13;;;;;;;36.77;34.66;102096.44;6071329;29;20261;-66
2023/08/16 12:19:53;;;;;;;2.13;1.58;;;;;;;36.97;34.74;102091.97;6050556;29;20232;-66
2023/08/16 12:23:14;;;;;;;1.67;1.00;;;;;;;38.50;33.30;102091.97;6068773;29;20276;-67
2023/08/16 12:26:36;;;;;;;1.27;0.90;;;;;;;38.25;31.91;102101.47;6070940;29;20225;-67
2023/08/16 12:29:57;;;;;;;2.30;0.85;;;;;;;39.09;30.89;102090.66;6072881;29;20548;-67
2023/08/16 12:33:18;;;;;;;2.15;1.35;;;;;;;39.87;29.84;102091.22;6064510;29;20232;-66
2023/08/16 12:36:39;;;;;;;3.47;2.65;;;;;;;39.84;31.15;102090.97;6071935;29;20590;-68
2023/08/16 12:40:00;;;;;;;1.90;1.20;;;;;;;38.42;31.34;102079.34;6079488;29;20245;-67
2023/08/16 12:43:22;;;;;;;4.53;4.13;;;;;;;39.29;32.30;102085.94;6067831;29;20232;-66
2023/08/16 12:46:43;;;;;;;5.65;2.20;;;;;;;39.31;32.21;102090.16;6080141;29;20323;-66
2023/08/16 12:50:05;;;;;;;6.53;1.25;;;;;;;36.48;33.60;102078.44;6070344;29;20326;-66
2023/08/16 12:53:30;;;;;;;2.25;1.45;;;;;;;35.50;35.76;102075.81;6075516;29;20582;-67
2023/08/16 12:56:52;;;;;;;2.20;1.20;;;;;;;34.23;38.21;102081.44;6080621;29;20696;-67
2023/08/16 13:00:14;;;;;;;2.50;1.52;;;;;;;34.36;38.20;102086.63;6075256;29;20981;-66
2023/08/16 13:03:36;;;;;;;1.90;1.27;;;;;;;36.03;35.02;102089.53;6072842;29;20620;-66
2023/08/16 13:06:59;;;;;;;2.95;1.80;;;;;;;37.38;33.64;102086.03;6079759;29;20240;-67
2023/08/16 13:10:20;;;;;;;2.35;1.23;;;;;;;36.28;33.71;102088.78;6080173;29;20380;-66
2023/08/16 13:13:41;;;;;;;2.42;1.23;;;;;;;33.83;38.46;102084.56;6072198;29;20232;-67
2023/08/16 13:17:04;;;;;;;1.40;1.02;;;;;;;33.34;39.52;102086.38;6078968;29;20232;-65
2023/08/16 13:20:26;;;;;;;2.50;0.88;;;;;;;33.46;40.61;102089.09;6085301;29;20278;-67
2023/08/16 13:23:50;;;;;;;3.78;1.25;;;;;;;34.05;39.00;102088.22;6066284;29;20280;-67
2023/08/16 13:27:12;;;;;;;1.58;1.00;;;;;;;32.58;41.52;102089.88;6076623;29;20236;-67
2023/08/16 13:30:33;;;;;;;2.53;1.42;;;;;;;30.11;43.39;102090.66;6082372;29;20924;-66
2023/08/16 13:33:55;;;;;;;1.90;1.00;;;;;;;29.81;45.30;102087.88;6076230;29;20252;-67
2023/08/16 13:37:16;;;;;;;2.38;1.02;;;;;;;30.34;45.33;102090.78;6071082;29;20852;-67
2023/08/16 13:40:38;;;;;;;2.75;1.60;;;;;;;30.50;45.91;102079.81;6086318;29;20228;-67
2023/08/16 13:43:59;;;;;;;5.38;2.33;;;;;;;30.71;44.60;102087.59;6080856;29;20240;-67
2023/08/16 13:47:20;;;;;;;2.78;2.58;;;;;;;30.84;44.82;102080.09;6071917;29;20245;-67
2023/08/16 13:50:42;;;;;;;2.97;1.63;;;;;;;30.33;46.64;102080.75;6083275;29;20259;-66
2023/08/16 13:54:03;;;;;;;1.58;1.30;;;;;;;29.66;47.33;102079.03;6069700;29;20256;-65
2023/08/16 13:57:24;;;;;;;3.35;1.13;;;;;;;29.17;48.20;102088.34;6070695;29;20236;-64
2023/08/16 14:00:45;;;;;;;1.98;1.23;;;;;;;28.58;48.53;102082.44;6078261;29;20551;-66
2023/08/16 14:04:06;;;;;;;0.85;0.82;;;;;;;28.19;48.85;102080.75;6073600;29;20228;-67
2023/08/16 14:07:29;;;;;;;5.85;5.05;;;;;;;28.29;49.48;102078.31;6072171;29;20335;-67
2023/08/16 14:10:52;;;;;;;2.28;1.92;;;;;;;28.26;50.29;102085.19;6076763;29;20236;-67
2023/08/16 14:14:14;;;;;;;1.77;1.10;;;;;;;27.91;49.51;102081.09;6079194;29;20240;-67
2023/08/16 14:17:35;;;;;;;2.50;1.33;;;;;;;27.67;49.39;102079.06;6077758;29;20248;-66
2023/08/16 14:20:56;;;;;;;2.15;1.10;;;;;;;27.95;49.80;102071.25;6081676;29;20623;-66
2023/08/16 14:24:18;;;;;;;1.40;1.17;;;;;;;27.61;49.24;102072.47;6072928;29;20232;-66
2023/08/16 14:27:39;;;;;;;3.53;1.23;;;;;;;27.82;50.33;102068.53;6072043;29;20240;-67
2023/08/16 14:31:00;;;;;;;2.00;1.13;;;;;;;27.78;49.60;102071.97;6068220;29;20240;-68
2023/08/16 14:34:21;;;;;;;2.00;0.90;;;;;;;27.43;50.42;102077.03;6067842;29;20256;-68
2023/08/16 14:37:41;;;;;;;1.20;1.10;;;;;;;27.01;51.44;102067.28;6065718;29;20229;-66
2023/08/16 14:41:03;;;;;;;4.43;1.20;;;;;;;27.14;51.15;102066.41;6079464;29;20232;-68
2023/08/16 14:44:24;;;;;;;1.88;1.58;;;;;;;27.21;51.57;102067.22;6067492;29;20236;-65
2023/08/16 14:47:45;;;;;;;3.00;1.23;;;;;;;27.02;52.69;102077.25;6063942;29;20233;-67
2023/08/16 14:51:06;;;;;;;3.72;2.28;;;;;;;26.82;53.54;102076.44;6077866;29;20255;-67
2023/08/16 14:54:27;;;;;;;2.47;1.35;;;;;;;26.65;54.50;102075.97;6065087;29;20769;-66
2023/08/16 14:57:49;;;;;;;2.00;1.67;;;;;;;26.59;54.63;102081.50;6069580;29;20260;-65
2023/08/16 15:01:10;;;;;;;3.08;2.30;;;;;;;26.53;54.49;102080.44;6081739;29;20243;-65
2023/08/16 15:04:31;;;;;;;4.53;2.17;;;;;;;26.75;53.89;102073.66;6069201;29;20240;-65
2023/08/16 15:07:52;;;;;;;2.53;2.00;;;;;;;26.57;54.29;102078.97;6071842;29;20228;-66
2023/08/16 15:11:15;;;;;;;1.35;1.25;;;;;;;26.56;54.63;102071.72;6073480;29;20596;-67
2023/08/16 15:14:37;;;;;;;1.25;1.15;;;;;;;26.38;54.38;102079.78;6060466;29;20232;-67
2023/08/16 15:17:58;;;;;;;1.25;1.00;;;;;;;26.26;54.34;102081.47;6070388;29;20240;-66
2023/08/16 15:21:19;;;;;;;2.42;1.65;;;;;;;26.10;54.21;102087.38;6078867;29;20236;-66
2023/08/16 15:24:40;;;;;;;2.67;1.40;;;;;;;25.74;54.24;102082.09;6047748;29;20299;-66
2023/08/16 15:28:01;;;;;;;3.10;0.98;;;;;;;25.70;56.33;102077.22;6058284;29;20311;-66
2023/08/16 15:31:23;;;;;;;3.22;1.33;;;;;;;25.69;55.54;102081.88;6078740;29;20240;-66
2023/08/16 15:34:45;;;;;;;2.78;1.73;;;;;;;25.70;54.58;102085.50;6060261;29;20241;-66
2023/08/16 15:38:07;;;;;;;2.67;2.10;;;;;;;25.68;55.21;102079.34;6067564;29;20236;-66